Time;durP1;ratioP1;P1;durP2;ratioP2;P2;SDS_P1;SDS_P2;PMS_P1;PMS_P2;Temp;Humidity;BMP_temperature;BMP_pressure;BME280_temperature;BME280_humidity;BME280_pressure;Samples;Min_cycle;Max_cycle;Signal;HPM_P1;HPM_P2
2022/05/16 00:02:07;;;;;;;3.35;1.98;;;;;;;13.58;91.18;98257.84;5063825;28;20329;-70
2022/05/16 00:04:36;;;;;;;4.57;2.10;;;;;;;13.63;91.39;98261.19;5061425;28;20388;-70
2022/05/16 00:07:01;;;;;;;2.90;1.90;;;;;;;13.69;91.63;98263.59;5062909;28;20070;-70
2022/05/16 00:09:27;;;;;;;3.83;2.33;;;;;;;13.76;91.71;98267.75;5063411;28;20244;-70
2022/05/16 00:11:52;;;;;;;4.57;2.40;;;;;;;13.73;91.37;98258.13;5054295;28;20028;-70
2022/05/16 00:14:17;;;;;;;2.55;1.90;;;;;;;13.75;91.94;98263.38;5061748;28;20029;-70
2022/05/16 00:16:43;;;;;;;5.85;2.20;;;;;;;13.78;91.86;98271.19;5044011;28;20367;-70
2022/05/16 00:19:08;;;;;;;3.80;2.30;;;;;;;13.84;91.94;98270.97;5050697;28;20051;-70
2022/05/16 00:21:34;;;;;;;3.22;2.00;;;;;;;13.60;91.25;98271.91;5063627;28;20029;-70
2022/05/16 00:23:59;;;;;;;6.00;2.05;;;;;;;13.58;92.08;98266.66;5067148;28;20047;-70
2022/05/16 00:26:24;;;;;;;3.90;2.40;;;;;;;13.57;91.85;98277.31;5049304;28;20021;-70
2022/05/16 00:28:50;;;;;;;4.60;2.65;;;;;;;13.65;92.57;98277.88;5047602;28;20038;-70
2022/05/16 00:31:15;;;;;;;2.35;1.77;;;;;;;13.76;92.52;98283.63;5047714;28;20029;-70
2022/05/16 00:33:41;;;;;;;2.58;1.88;;;;;;;13.97;91.43;98286.31;5049439;28;20033;-70
2022/05/16 00:36:07;;;;;;;2.97;1.98;;;;;;;14.03;91.69;98279.91;5062162;28;20083;-70
2022/05/16 00:38:32;;;;;;;2.70;2.03;;;;;;;14.03;91.77;98282.56;5047489;28;20071;-70
2022/05/16 00:41:00;;;;;;;4.88;2.30;;;;;;;13.98;91.26;98284.53;5047465;28;20093;-70
2022/05/16 00:43:45;;;;;;;3.72;1.75;;;;;;;13.91;91.37;98272.44;5047690;28;20063;-70
2022/05/16 00:46:11;;;;;;;2.75;1.85;;;;;;;13.83;91.73;98269.25;5055031;28;20025;-70
2022/05/16 00:48:36;;;;;;;3.03;1.90;;;;;;;13.77;91.74;98270.34;5047221;28;20071;-70
2022/05/16 00:51:02;;;;;;;2.78;2.10;;;;;;;13.61;91.92;98263.03;5049345;28;20029;-70
2022/05/16 00:53:29;;;;;;;3.42;2.30;;;;;;;13.62;92.37;98254.19;5066635;28;20372;-70
2022/05/16 00:55:54;;;;;;;6.20;2.50;;;;;;;13.71;91.62;98249.41;5066338;28;20059;-70
2022/05/16 00:58:20;;;;;;;3.15;2.20;;;;;;;13.77;91.29;98243.03;5055100;28;20033;-70
2022/05/16 01:00:48;;;;;;;4.35;2.20;;;;;;;13.77;91.17;98243.03;5047178;28;20029;-70
2022/05/16 01:06:03;;;;;;;3.00;2.10;;;;;;;13.81;92.32;98239.34;5062605;28;20215;-70
2022/05/16 01:08:31;;;;;;;4.15;1.92;;;;;;;13.85;91.79;98235.63;5054206;28;20194;-70
2022/05/16 01:11:01;;;;;;;8.57;2.60;;;;;;;13.74;92.81;98222.84;5046897;28;20037;-70
2022/05/16 01:13:28;;;;;;;4.20;2.25;;;;;;;13.74;92.61;98229.91;5046838;28;20329;-70
2022/05/16 01:15:55;;;;;;;3.35;2.30;;;;;;;13.88;92.41;98225.81;5047837;28;20037;-70
2022/05/16 01:18:23;;;;;;;7.05;2.22;;;;;;;13.90;92.56;98238.97;5046716;28;20029;-70
2022/05/16 01:21:07;;;;;;;4.00;2.33;;;;;;;13.89;92.93;98234.63;5063880;28;20025;-70
2022/05/16 01:23:37;;;;;;;3.95;2.33;;;;;;;14.00;93.09;98237.69;5059424;28;20317;-70
2022/05/16 01:26:08;;;;;;;4.57;2.28;;;;;;;14.07;93.39;98244.47;5046649;28;20029;-70
2022/05/16 01:28:33;;;;;;;4.15;2.22;;;;;;;14.22;93.66;98243.88;5046766;28;20218;-70
2022/05/16 01:30:58;;;;;;;4.43;2.45;;;;;;;14.02;93.54;98239.34;5064814;28;20096;-70
2022/05/16 01:33:25;;;;;;;6.40;2.70;;;;;;;13.92;94.76;98239.81;5051661;28;20199;-70
2022/05/16 01:35:50;;;;;;;3.33;2.30;;;;;;;13.91;94.43;98248.63;5066108;28;20033;-70
2022/05/16 01:38:25;;;;;;;4.88;2.38;;;;;;;13.95;95.04;98242.34;5060544;28;20036;-70
2022/05/16 01:40:58;;;;;;;4.22;2.20;;;;;;;13.97;94.61;98245.75;5046582;28;20024;-70
2022/05/16 01:43:29;;;;;;;5.85;2.47;;;;;;;13.94;95.09;98245.88;5065932;28;20025;-70
2022/05/16 01:45:54;;;;;;;3.95;2.42;;;;;;;13.96;95.35;98244.03;5065933;28;20029;-70
2022/05/16 01:48:20;;;;;;;4.72;2.45;;;;;;;14.04;96.67;98252.53;5065213;28;20060;-70
2022/05/16 01:50:48;;;;;;;7.75;3.00;;;;;;;14.09;98.10;98253.22;5064436;28;20040;-70
2022/05/16 01:53:15;;;;;;;4.57;2.72;;;;;;;14.04;97.64;98252.53;5065296;28;20024;-70
2022/05/16 01:55:40;;;;;;;2.60;2.17;;;;;;;14.06;97.57;98256.88;5066029;28;20071;-70
2022/05/16 01:58:07;;;;;;;2.17;1.83;;;;;;;14.12;97.09;98261.03;5060977;28;20025;-70
2022/05/16 02:00:33;;;;;;;4.47;2.00;;;;;;;14.06;96.62;98266.56;5046006;28;20321;-70
2022/05/16 02:03:05;;;;;;;4.43;2.72;;;;;;;13.91;97.88;98264.50;5045869;28;20031;-70
2022/05/16 02:05:31;;;;;;;4.13;2.70;;;;;;;13.82;97.23;98256.91;5045849;28;20025;-70
2022/05/16 02:07:56;;;;;;;4.78;2.78;;;;;;;13.84;97.34;98255.97;5046613;28;20270;-70
2022/05/16 02:10:23;;;;;;;9.43;2.40;;;;;;;13.87;97.25;98254.97;5045721;28;20033;-70
2022/05/16 02:12:49;;;;;;;3.55;2.75;;;;;;;13.92;96.90;98253.03;5045951;28;20083;-70
2022/05/16 02:15:18;;;;;;;4.90;2.50;;;;;;;13.96;96.44;98254.63;5045701;28;20045;-70
2022/05/16 02:17:43;;;;;;;5.72;2.38;;;;;;;13.96;96.52;98252.84;5064084;28;20216;-70
2022/05/16 02:20:09;;;;;;;5.65;2.85;;;;;;;13.98;96.64;98252.78;5065087;28;20046;-70
2022/05/16 02:25:19;;;;;;;7.28;2.90;;;;;;;13.84;97.27;98260.38;5064971;28;20043;-70
2022/05/16 02:27:46;;;;;;;4.75;2.63;;;;;;;13.79;97.80;98251.78;5046668;28;20025;-70
2022/05/16 02:30:12;;;;;;;3.92;2.58;;;;;;;13.70;98.66;98258.25;5045614;28;20102;-70
2022/05/16 02:32:38;;;;;;;5.22;2.67;;;;;;;13.67;98.77;98252.22;5053162;28;20025;-70
2022/05/16 02:35:04;;;;;;;6.70;2.80;;;;;;;13.70;98.55;98252.13;5045343;28;20270;-70
2022/05/16 02:37:29;;;;;;;5.93;3.25;;;;;;;13.69;98.61;98250.38;5061020;28;20213;-70
2022/05/16 02:39:54;;;;;;;4.32;2.85;;;;;;;13.64;99.30;98247.06;5064351;28;20325;-70
2022/05/16 02:42:20;;;;;;;4.18;2.60;;;;;;;13.60;99.64;98250.75;5064666;28;20077;-70
2022/05/16 02:44:45;;;;;;;3.58;2.45;;;;;;;13.70;99.54;98260.06;5064540;28;20031;-70
2022/05/16 02:47:16;;;;;;;5.38;3.15;;;;;;;13.76;99.86;98251.91;5063356;28;20127;-70
2022/05/16 02:49:41;;;;;;;4.43;2.67;;;;;;;13.80;99.74;98250.84;5057347;28;20332;-70
2022/05/16 02:52:07;;;;;;;5.55;2.83;;;;;;;13.79;99.53;98259.72;5045065;28;20037;-70
2022/05/16 02:54:32;;;;;;;3.97;2.72;;;;;;;13.82;99.46;98246.34;5044976;28;20355;-70
2022/05/16 02:56:58;;;;;;;4.10;2.50;;;;;;;13.85;99.70;98248.88;5044947;28;20029;-70
2022/05/16 02:59:26;;;;;;;4.55;2.60;;;;;;;13.74;99.63;98248.44;5063233;28;20048;-70
2022/05/16 03:01:51;;;;;;;6.30;3.20;;;;;;;13.79;99.49;98251.78;5064155;28;20043;-70
2022/05/16 03:04:16;;;;;;;4.90;2.45;;;;;;;13.79;99.12;98259.72;5062569;28;20328;-70
2022/05/16 03:06:42;;;;;;;5.57;2.30;;;;;;;13.82;99.44;98256.91;5053569;28;20080;-70
2022/05/16 03:09:08;;;;;;;4.72;2.60;;;;;;;13.69;99.10;98251.25;5044874;28;20029;-70
2022/05/16 03:11:33;;;;;;;3.00;2.20;;;;;;;13.59;100.00;98254.28;5043511;28;20021;-70
2022/05/16 03:13:58;;;;;;;6.45;2.42;;;;;;;13.62;99.63;98248.88;5044539;28;20063;-70
2022/05/16 03:16:24;;;;;;;10.82;3.10;;;;;;;13.60;100.00;98256.03;5044565;28;20053;-70
2022/05/16 03:18:49;;;;;;;3.72;2.50;;;;;;;13.58;100.00;98252.56;5057497;28;20194;-70
2022/05/16 03:21:15;;;;;;;5.15;2.70;;;;;;;13.63;100.00;98255.88;5044610;28;20084;-70
2022/05/16 03:23:41;;;;;;;6.00;2.55;;;;;;;13.70;99.93;98262.69;5045630;28;20079;-70
2022/05/16 03:26:06;;;;;;;4.22;2.47;;;;;;;13.75;100.00;98266.00;5057268;28;20059;-70
2022/05/16 03:28:32;;;;;;;4.43;2.83;;;;;;;13.81;100.00;98260.50;5063644;28;20382;-70
2022/05/16 03:30:59;;;;;;;3.65;2.60;;;;;;;13.80;100.00;98258.78;5064548;28;20024;-70
2022/05/16 03:33:25;;;;;;;9.52;2.90;;;;;;;13.85;99.73;98254.16;5063391;28;20288;-70
2022/05/16 03:35:55;;;;;;;8.27;2.42;;;;;;;13.89;99.49;98247.84;5063972;28;20032;-70
2022/05/16 03:41:07;;;;;;;10.38;3.22;;;;;;;13.90;99.82;98244.28;5063193;28;20024;-70
2022/05/16 03:43:35;;;;;;;20.65;3.30;;;;;;;13.95;100.00;98247.63;5063135;28;20029;-70
2022/05/16 03:46:00;;;;;;;13.75;3.40;;;;;;;14.16;99.85;98241.47;5063118;28;20020;-70
2022/05/16 03:48:26;;;;;;;6.55;3.45;;;;;;;14.39;98.73;98244.06;5062958;28;20048;-70
2022/05/16 03:50:51;;;;;;;6.43;3.38;;;;;;;14.63;96.97;98259.84;5051657;28;20025;-70
2022/05/16 03:53:16;;;;;;;7.93;3.75;;;;;;;14.89;95.21;98251.66;5043110;28;20252;-70
2022/05/16 03:55:41;;;;;;;8.85;4.05;;;;;;;15.29;92.70;98244.63;5043057;28;20025;-70
2022/05/16 03:58:07;;;;;;;8.65;3.90;;;;;;;15.56;90.44;98254.06;5043606;28;20055;-70
2022/05/16 04:00:32;;;;;;;5.55;3.47;;;;;;;15.72;89.81;98266.53;5050555;28;20020;-70
2022/05/16 04:02:57;;;;;;;5.22;3.15;;;;;;;16.01;87.69;98262.56;5061808;28;20020;-70
2022/05/16 04:05:24;;;;;;;7.95;3.67;;;;;;;16.15;88.15;98258.31;5049983;28;20032;-69
2022/05/16 04:07:50;;;;;;;8.13;3.85;;;;;;;16.32;86.66;98271.63;5051095;28;20055;-68
2022/05/16 04:10:16;;;;;;;6.75;3.70;;;;;;;16.54;86.82;98275.03;5063707;28;20025;-68
2022/05/16 04:12:42;;;;;;;13.68;3.65;;;;;;;16.77;84.60;98272.09;5063802;28;20027;-68
2022/05/16 04:15:09;;;;;;;8.98;3.83;;;;;;;16.87;85.66;98272.50;5063808;28;20324;-68
2022/05/16 04:17:34;;;;;;;11.20;4.07;;;;;;;16.92;83.86;98279.31;5063711;28;20032;-68
2022/05/16 04:20:00;;;;;;;9.13;3.53;;;;;;;17.08;81.83;98268.75;5063997;28;20021;-68
2022/05/16 04:22:25;;;;;;;9.75;3.88;;;;;;;17.14;82.20;98271.97;5063736;28;20088;-68
2022/05/16 04:24:51;;;;;;;5.63;2.63;;;;;;;17.22;80.88;98279.56;5063643;28;20044;-68
2022/05/16 04:27:16;;;;;;;8.93;3.17;;;;;;;17.24;81.38;98272.34;5063697;28;20216;-68
2022/05/16 04:29:41;;;;;;;10.48;3.80;;;;;;;17.25;80.61;98277.56;5063554;28;20316;-68
2022/05/16 04:32:07;;;;;;;5.32;3.35;;;;;;;17.27;80.17;98276.66;5063637;28;20025;-68
2022/05/16 04:34:33;;;;;;;8.23;3.40;;;;;;;17.27;79.58;98275.72;5063575;28;20047;-68
2022/05/16 04:36:58;;;;;;;19.10;5.13;;;;;;;17.28;79.96;98274.75;5063575;28;20212;-68
2022/05/16 04:39:23;;;;;;;17.38;6.28;;;;;;;17.32;79.15;98282.59;5063494;28;20016;-68
2022/05/16 04:44:36;;;;;;;21.35;6.65;;;;;;;17.22;80.95;98284.88;5063480;28;20108;-68
2022/05/16 04:47:03;;;;;;;11.15;4.75;;;;;;;17.15;80.56;98284.31;5063399;28;20052;-68
2022/05/16 04:49:28;;;;;;;7.05;3.92;;;;;;;17.09;81.19;98284.63;5063825;28;20041;-68
2022/05/16 04:51:53;;;;;;;7.90;3.20;;;;;;;17.12;80.19;98284.47;5063437;28;20052;-68
2022/05/16 04:54:19;;;;;;;4.22;2.92;;;;;;;17.11;80.75;98290.72;5063363;28;20066;-68
2022/05/16 04:56:46;;;;;;;5.57;3.15;;;;;;;17.13;79.92;98291.53;5063353;28;20332;-68
2022/05/16 04:59:13;;;;;;;10.35;3.17;;;;;;;17.17;79.95;98298.41;5063602;28;20013;-68
2022/05/16 05:01:38;;;;;;;5.72;3.00;;;;;;;17.20;80.29;98308.88;5063815;28;20224;-68
2022/05/16 05:04:04;;;;;;;8.63;3.40;;;;;;;17.30;80.32;98311.09;5063307;28;20021;-68
2022/05/16 05:06:29;;;;;;;8.13;3.70;;;;;;;17.44;80.01;98322.75;5063299;28;20339;-68
2022/05/16 05:08:54;;;;;;;9.65;3.95;;;;;;;17.75;79.24;98322.03;5064377;28;20052;-68
2022/05/16 05:16:48;;;;;;;7.57;3.30;;;;;;;18.50;77.70;98340.06;5066792;28;20032;-68
2022/05/16 05:19:13;;;;;;;6.93;3.45;;;;;;;19.52;75.99;98332.38;5066800;28;20016;-68
2022/05/16 05:21:38;;;;;;;16.65;3.42;;;;;;;20.24;72.97;98343.91;5066739;28;20032;-68
2022/05/16 05:24:04;;;;;;;9.45;3.53;;;;;;;20.88;71.30;98353.09;5066629;28;20027;-68
2022/05/16 05:26:29;;;;;;;6.50;3.13;;;;;;;21.11;66.82;98352.47;5066914;28;20059;-68
2022/05/16 05:28:54;;;;;;;5.32;3.15;;;;;;;21.29;68.74;98348.56;5066515;28;20021;-69
2022/05/16 05:31:25;;;;;;;8.27;3.55;;;;;;;21.72;67.54;98361.75;5066582;28;20021;-69
2022/05/16 05:33:50;;;;;;;6.45;3.10;;;;;;;21.73;66.32;98368.84;5066466;28;20021;-69
2022/05/16 05:36:16;;;;;;;4.70;2.80;;;;;;;21.94;64.66;98362.88;5066457;28;20048;-69
2022/05/16 05:38:41;;;;;;;8.15;3.03;;;;;;;22.45;65.70;98374.44;5066480;28;20043;-69
2022/05/16 05:41:08;;;;;;;5.95;3.05;;;;;;;22.95;63.87;98379.75;5066316;28;20225;-69
2022/05/16 05:43:34;;;;;;;9.25;3.08;;;;;;;23.25;61.52;98380.19;5066302;28;20029;-69
2022/05/16 05:46:02;;;;;;;4.63;2.30;;;;;;;23.32;59.72;98384.16;5066286;28;20087;-69
2022/05/16 05:48:28;;;;;;;5.50;2.78;;;;;;;23.69;58.88;98401.91;5066072;28;20037;-69
2022/05/16 05:50:53;;;;;;;11.43;3.13;;;;;;;23.88;58.05;98399.53;5066062;28;20040;-69
2022/05/16 05:53:19;;;;;;;8.48;3.38;;;;;;;24.10;58.53;98399.63;5066078;28;20139;-68
2022/05/16 05:55:47;;;;;;;5.70;2.97;;;;;;;24.30;57.73;98407.00;5066051;28;20052;-68
2022/05/16 05:58:13;;;;;;;10.30;4.40;;;;;;;24.02;56.66;98396.69;5066310;28;20051;-68
2022/05/16 06:00:39;;;;;;;4.75;3.00;;;;;;;24.31;58.28;98411.44;5066269;28;20356;-69
2022/05/16 06:03:04;;;;;;;8.73;2.92;;;;;;;24.99;56.56;98424.78;5065871;28;20031;-69
2022/05/16 06:05:30;;;;;;;5.50;2.72;;;;;;;25.48;54.25;98427.06;5065843;28;20021;-69
2022/05/16 06:07:55;;;;;;;6.95;2.80;;;;;;;25.63;53.47;98428.50;5065830;28;20093;-69
2022/05/16 06:10:20;;;;;;;11.73;2.88;;;;;;;25.68;53.96;98434.34;5065816;28;20040;-69
2022/05/16 06:12:46;;;;;;;7.35;2.83;;;;;;;26.29;51.89;98433.63;5065814;28;20025;-69
2022/05/16 06:15:13;;;;;;;4.85;2.90;;;;;;;26.27;52.78;98430.19;5065968;28;20035;-68
2022/05/16 06:17:39;;;;;;;5.80;2.45;;;;;;;26.60;50.11;98429.97;5065685;28;20075;-68
2022/05/16 06:20:07;;;;;;;6.25;2.33;;;;;;;26.66;51.37;98426.75;5065307;28;20312;-68
2022/05/16 06:22:37;;;;;;;5.35;2.55;;;;;;;26.75;50.50;98431.34;5065496;28;20355;-68
2022/05/16 06:27:49;;;;;;;5.93;2.47;;;;;;;27.18;50.51;98440.09;5065509;28;20051;-68
2022/05/16 06:30:16;;;;;;;5.20;2.45;;;;;;;26.93;49.78;98435.16;5065447;28;20248;-68
2022/05/16 06:32:41;;;;;;;3.72;2.40;;;;;;;27.09;49.08;98441.72;5065652;28;20020;-68
2022/05/16 06:35:07;;;;;;;2.95;1.95;;;;;;;27.70;48.94;98447.91;5065307;28;20028;-68
2022/05/16 06:37:32;;;;;;;5.10;2.30;;;;;;;27.71;47.13;98441.50;5064124;28;20028;-68
2022/05/16 06:39:57;;;;;;;4.93;2.10;;;;;;;27.77;47.90;98443.63;5065287;28;20088;-68
2022/05/16 06:42:23;;;;;;;8.23;2.90;;;;;;;28.26;46.96;98454.38;5065222;28;20431;-69
2022/05/16 06:44:48;;;;;;;5.38;2.55;;;;;;;27.73;47.42;98447.63;5065212;28;20254;-69
2022/05/16 06:47:14;;;;;;;5.88;2.60;;;;;;;28.07;48.17;98450.81;5064916;28;20052;-69
2022/05/16 06:49:39;;;;;;;8.65;3.08;;;;;;;28.50;45.70;98465.63;5065226;28;20033;-69
2022/05/16 06:52:05;;;;;;;4.30;2.75;;;;;;;28.28;46.26;98471.31;5065020;28;20025;-69
2022/05/16 06:54:30;;;;;;;4.93;2.28;;;;;;;28.23;45.95;98462.78;5065231;28;20021;-69
2022/05/16 06:56:55;;;;;;;5.95;2.45;;;;;;;28.69;45.80;98481.84;5064890;28;20021;-68
2022/05/16 06:59:21;;;;;;;3.85;2.08;;;;;;;28.54;45.69;98475.16;5064905;28;20021;-68
2022/05/16 07:01:46;;;;;;;5.20;2.40;;;;;;;28.24;45.81;98486.13;5064816;28;20024;-68
2022/05/16 07:04:12;;;;;;;9.52;2.20;;;;;;;28.88;46.92;98487.19;5064914;28;20071;-69
2022/05/16 07:06:37;;;;;;;7.35;2.53;;;;;;;28.82;45.13;98482.38;5064761;28;20021;-69
2022/05/16 07:09:03;;;;;;;7.05;2.72;;;;;;;28.88;46.13;98486.34;5064586;28;20024;-69
2022/05/16 07:11:29;;;;;;;7.63;2.22;;;;;;;29.16;44.38;98502.56;5064890;28;20047;-68
2022/05/16 07:13:55;;;;;;;6.00;2.13;;;;;;;29.19;44.16;98512.25;5064855;28;20017;-68
2022/05/16 07:16:20;;;;;;;7.47;2.65;;;;;;;29.39;44.86;98507.59;5064611;28;20366;-69
2022/05/16 07:18:45;;;;;;;4.60;1.90;;;;;;;29.43;43.68;98503.56;5064560;28;20028;-69
2022/05/16 07:21:11;;;;;;;5.00;2.40;;;;;;;29.16;44.69;98502.56;5064410;28;20320;-69
2022/05/16 07:23:37;;;;;;;9.25;2.92;;;;;;;29.16;44.68;98497.13;5064405;28;20024;-69
2022/05/16 07:28:47;;;;;;;3.83;2.00;;;;;;;29.24;45.52;98505.34;5064283;28;20028;-68
2022/05/16 07:31:12;;;;;;;6.82;2.38;;;;;;;29.40;45.55;98506.59;5063633;28;20021;-68
2022/05/16 07:33:38;;;;;;;7.35;2.42;;;;;;;29.19;45.27;98523.94;5064268;28;20027;-68
2022/05/16 07:36:04;;;;;;;4.60;2.10;;;;;;;29.11;44.99;98512.97;5064238;28;20020;-69
2022/05/16 07:38:29;;;;;;;4.32;1.83;;;;;;;29.55;44.79;98524.94;5064215;28;20040;-68
2022/05/16 07:40:56;;;;;;;5.40;2.30;;;;;;;29.98;44.92;98519.72;5064361;28;20028;-68
2022/05/16 07:43:21;;;;;;;3.47;1.85;;;;;;;30.43;43.37;98517.81;5064141;28;20079;-68
2022/05/16 07:45:47;;;;;;;4.45;2.33;;;;;;;30.42;44.78;98510.69;5064147;28;20321;-69
2022/05/16 07:48:13;;;;;;;5.07;2.10;;;;;;;30.57;43.45;98517.28;5063760;28;20233;-68
2022/05/16 07:50:40;;;;;;;5.07;1.95;;;;;;;30.78;43.03;98527.84;5064214;28;20224;-68
2022/05/16 07:53:11;;;;;;;6.32;2.10;;;;;;;29.87;43.96;98528.09;5064232;28;20073;-68
2022/05/16 07:55:38;;;;;;;6.97;2.58;;;;;;;30.00;43.34;98530.41;5064209;28;20234;-69
2022/05/16 07:58:03;;;;;;;6.38;2.65;;;;;;;30.12;44.87;98534.63;5063810;28;20036;-69
2022/05/16 08:00:29;;;;;;;7.03;2.30;;;;;;;29.14;45.69;98526.22;5063984;28;20211;-69
2022/05/16 08:02:55;;;;;;;5.90;2.30;;;;;;;29.10;44.91;98530.25;5063804;28;20075;-69
2022/05/16 08:05:21;;;;;;;4.55;2.25;;;;;;;29.13;46.06;98534.50;5064156;28;20048;-69
2022/05/16 08:10:32;;;;;;;3.63;1.95;;;;;;;28.23;47.54;98544.00;5063750;28;20024;-69
2022/05/16 08:13:04;;;;;;;4.53;2.15;;;;;;;29.34;46.05;98559.56;5063819;28;20029;-69
2022/05/16 08:15:31;;;;;;;8.98;2.53;;;;;;;29.69;46.53;98559.72;5063794;28;20029;-69
2022/05/16 08:18:02;;;;;;;3.90;1.73;;;;;;;29.16;47.21;98543.22;5063739;28;20036;-69
2022/05/16 08:20:28;;;;;;;5.38;2.10;;;;;;;29.24;45.78;98554.16;5064024;28;20243;-68
2022/05/16 08:22:53;;;;;;;5.43;2.17;;;;;;;29.46;45.35;98571.09;5063686;28;20029;-68
2022/05/16 08:25:19;;;;;;;4.43;2.03;;;;;;;29.07;46.12;98563.06;5063941;28;20017;-68
2022/05/16 08:27:45;;;;;;;4.03;2.42;;;;;;;28.04;48.35;98571.03;5063995;28;20084;-69
2022/05/16 08:30:11;;;;;;;3.55;2.10;;;;;;;28.51;46.59;98575.66;5063555;28;20098;-69
2022/05/16 08:32:37;;;;;;;4.40;2.50;;;;;;;28.88;45.63;98578.47;5063891;28;20017;-69
2022/05/16 08:35:07;;;;;;;6.55;1.92;;;;;;;28.10;47.77;98575.88;5063831;28;20028;-69
2022/05/16 08:40:19;;;;;;;7.00;2.88;;;;;;;27.45;50.62;98580.03;5063515;28;20028;-69
2022/05/16 08:42:47;;;;;;;5.57;2.28;;;;;;;27.25;49.92;98588.06;5064485;28;20027;-69
2022/05/16 08:45:33;;;;;;;7.88;2.20;;;;;;;27.32;50.55;98587.53;5067960;28;20261;-69
2022/05/16 08:47:58;;;;;;;6.82;2.42;;;;;;;27.26;51.11;98597.03;5067246;28;20355;-69
2022/05/16 08:50:32;;;;;;;7.70;2.50;;;;;;;27.87;50.85;98603.31;5067337;28;20053;-69
2022/05/16 08:53:13;;;;;;;3.67;2.20;;;;;;;28.98;48.51;98601.84;5067301;28;20020;-69
2022/05/16 08:55:41;;;;;;;8.88;2.80;;;;;;;28.29;49.85;98613.81;5067260;28;20032;-69
2022/05/16 08:58:29;;;;;;;5.95;2.28;;;;;;;27.43;50.74;98600.97;5067207;28;20040;-69
2022/05/16 09:01:01;;;;;;;8.45;2.17;;;;;;;26.99;53.69;98596.72;5067189;28;20032;-69
2022/05/16 09:03:43;;;;;;;9.65;2.60;;;;;;;26.88;53.41;98604.84;5067068;28;20032;-69
2022/05/16 09:06:15;;;;;;;4.70;2.67;;;;;;;26.66;53.53;98607.69;5067042;28;20032;-69
2022/05/16 09:09:11;;;;;;;9.07;2.53;;;;;;;25.91;55.36;98600.53;5067195;28;20027;-69
2022/05/16 09:12:04;;;;;;;3.90;2.15;;;;;;;25.72;54.49;98600.31;5066972;28;20216;-69
2022/05/16 09:14:58;;;;;;;4.32;2.45;;;;;;;25.79;56.78;98605.06;5066847;28;20031;-69
2022/05/16 09:18:14;;;;;;;5.57;2.50;;;;;;;25.67;57.37;98607.88;5067076;28;20044;-68
2022/05/16 09:21:19;;;;;;;6.32;2.45;;;;;;;25.74;59.94;98609.97;5055062;28;20036;-68
2022/05/16 09:23:58;;;;;;;6.55;2.55;;;;;;;25.71;59.79;98607.53;5066409;28;20033;-68
2022/05/16 09:26:42;;;;;;;9.93;2.30;;;;;;;25.55;58.05;98614.25;5066907;28;20265;-68
2022/05/16 09:29:42;;;;;;;6.45;2.67;;;;;;;25.20;60.15;98606.25;5066489;28;20025;-68
2022/05/16 09:32:29;;;;;;;9.77;2.33;;;;;;;25.15;59.89;98609.31;5066550;28;20092;-68
2022/05/16 09:34:55;;;;;;;4.63;2.33;;;;;;;25.51;59.09;98597.50;5066572;28;20040;-68
2022/05/16 09:37:20;;;;;;;6.22;2.35;;;;;;;25.97;58.26;98605.41;5066464;28;20024;-68
2022/05/16 09:39:48;;;;;;;4.30;1.70;;;;;;;26.10;55.16;98600.75;5066453;28;20044;-68
2022/05/16 09:42:26;;;;;;;3.05;1.52;;;;;;;26.54;52.68;98606.00;5066415;28;20254;-68
2022/05/16 09:44:54;;;;;;;11.00;1.50;;;;;;;26.06;52.28;98599.28;5066345;28;20224;-68
2022/05/16 09:47:28;;;;;;;2.35;1.30;;;;;;;26.43;52.59;98615.00;5066505;28;20025;-68
2022/05/16 09:50:02;;;;;;;2.22;0.98;;;;;;;26.85;52.45;98642.94;5065996;28;20037;-68
2022/05/16 09:52:28;;;;;;;2.33;0.98;;;;;;;26.77;52.77;98645.44;5066181;28;20037;-68
2022/05/16 09:55:11;;;;;;;1.83;0.95;;;;;;;26.53;52.86;98642.06;5065681;28;20208;-68
2022/05/16 09:57:50;;;;;;;2.80;1.20;;;;;;;25.79;55.02;98645.53;5066373;28;20108;-68
2022/05/16 10:00:22;;;;;;;5.32;1.20;;;;;;;25.75;55.72;98653.97;5066113;28;20016;-68
2022/05/16 10:03:15;;;;;;;6.22;1.55;;;;;;;25.66;56.07;98673.59;5065883;28;20025;-68
2022/05/16 10:05:47;;;;;;;4.35;1.38;;;;;;;26.21;54.55;98674.44;5045093;28;20040;-68
2022/05/16 10:08:21;;;;;;;4.13;1.45;;;;;;;25.74;56.29;98668.41;5065926;28;20016;-68
2022/05/16 10:10:47;;;;;;;2.10;1.25;;;;;;;24.77;56.41;98665.28;5065817;28;20275;-68
2022/05/16 10:13:15;;;;;;;4.43;1.63;;;;;;;24.49;59.91;98670.97;5065801;28;20025;-68
2022/05/16 10:15:41;;;;;;;4.82;1.80;;;;;;;24.16;59.92;98678.00;5065727;28;20332;-68
2022/05/16 10:18:13;;;;;;;4.13;1.05;;;;;;;24.11;59.67;98675.66;5065676;28;20339;-68
2022/05/16 10:20:45;;;;;;;3.30;1.60;;;;;;;24.15;61.50;98682.53;5065896;28;20047;-68
2022/05/16 10:23:20;;;;;;;2.90;1.38;;;;;;;23.97;60.18;98689.25;5065606;28;20044;-68
2022/05/16 10:25:48;;;;;;;6.22;1.17;;;;;;;23.53;61.29;98694.22;5065671;28;20028;-68
2022/05/16 10:28:26;;;;;;;5.35;1.50;;;;;;;23.17;62.15;98702.13;5065577;28;20016;-68
2022/05/16 10:33:40;;;;;;;6.35;1.30;;;;;;;22.83;63.12;98717.00;5065386;28;20067;-68
2022/05/16 10:36:13;;;;;;;4.68;1.20;;;;;;;22.33;63.29;98723.94;5065384;28;20025;-68
2022/05/16 10:38:46;;;;;;;4.13;1.33;;;;;;;22.23;63.48;98709.41;5065296;28;20021;-68
2022/05/16 10:41:20;;;;;;;2.22;1.27;;;;;;;22.06;63.59;98723.94;5065188;28;20036;-68
2022/05/16 10:44:11;;;;;;;3.40;0.98;;;;;;;21.99;64.08;98729.78;5065235;28;20025;-68
2022/05/16 10:46:41;;;;;;;2.88;1.20;;;;;;;21.81;63.49;98736.28;5065172;28;20343;-68
2022/05/16 10:49:16;;;;;;;2.60;0.80;;;;;;;21.59;64.23;98743.91;5064885;28;20032;-68
2022/05/16 10:51:58;;;;;;;1.88;1.00;;;;;;;21.43;64.42;98740.44;5065044;28;20048;-68
2022/05/16 10:54:27;;;;;;;3.97;1.10;;;;;;;21.00;66.35;98748.38;5065238;28;20017;-68
2022/05/16 10:57:13;;;;;;;5.63;1.20;;;;;;;20.85;66.83;98737.72;5065007;28;20047;-68
2022/05/16 10:59:57;;;;;;;4.30;0.85;;;;;;;20.62;66.96;98746.19;5064894;28;20040;-68
2022/05/16 11:03:10;;;;;;;0.98;0.73;;;;;;;20.58;68.21;98739.31;5064837;28;20048;-68
2022/05/16 11:06:02;;;;;;;5.28;1.10;;;;;;;20.31;69.27;98749.75;5064347;28;20021;-68
2022/05/16 11:08:45;;;;;;;2.05;0.85;;;;;;;20.03;71.57;98752.22;5064703;28;20074;-68
2022/05/16 11:11:29;;;;;;;2.40;1.00;;;;;;;19.98;74.12;98754.28;5064692;28;20070;-68
2022/05/16 11:14:34;;;;;;;4.25;1.05;;;;;;;19.85;76.79;98752.38;5064674;28;20031;-68
2022/05/16 11:17:18;;;;;;;2.67;1.45;;;;;;;19.52;79.33;98748.84;5064602;28;20025;-68
2022/05/16 11:20:08;;;;;;;7.85;1.05;;;;;;;19.59;82.26;98751.13;5064483;28;20052;-68
2022/05/16 11:22:49;;;;;;;1.88;1.10;;;;;;;19.43;82.53;98758.22;5054873;28;20060;-68
2022/05/16 11:25:45;;;;;;;2.58;0.98;;;;;;;19.46;83.92;98752.72;5064412;28;20017;-68
2022/05/16 11:28:18;;;;;;;2.25;0.90;;;;;;;19.57;84.76;98758.34;5064004;28;20232;-68
2022/05/16 11:30:51;;;;;;;2.88;1.27;;;;;;;19.58;86.41;98754.72;5064252;28;20048;-68
2022/05/16 11:33:25;;;;;;;4.35;1.35;;;;;;;19.63;87.50;98758.00;5064571;28;20047;-68
2022/05/16 11:35:55;;;;;;;1.65;0.80;;;;;;;19.60;84.67;98751.97;5064385;28;20021;-68
2022/05/16 11:38:43;;;;;;;6.63;1.35;;;;;;;19.76;85.56;98748.41;5064224;28;20021;-68
2022/05/16 11:41:46;;;;;;;4.68;1.55;;;;;;;19.87;85.19;98745.97;5053324;28;20032;-68
2022/05/16 11:44:30;;;;;;;;;;;;;;;19.94;84.99;98739.38;5064607;28;20021;-68
2022/05/16 11:47:23;;;;;;;2.20;0.88;;;;;;;20.00;83.09;98736.34;5064129;28;20073;-68
2022/05/16 11:50:01;;;;;;;2.67;1.02;;;;;;;20.30;84.44;98740.03;5063917;28;20056;-68
2022/05/16 11:52:58;;;;;;;2.25;1.00;;;;;;;20.44;84.14;98731.22;5064041;28;20055;-68
2022/05/16 12:01:03;;;;;;;3.42;1.48;;;;;;;20.79;84.05;98733.56;5063926;28;20024;-68
2022/05/16 12:03:42;;;;;;;3.88;1.33;;;;;;;20.73;84.82;98728.56;5063835;28;20021;-68
2022/05/16 12:06:21;;;;;;;4.75;1.55;;;;;;;20.77;84.88;98730.13;5063869;28;20033;-68
2022/05/16 12:08:47;;;;;;;5.47;1.80;;;;;;;20.69;84.70;98718.16;5063788;28;20052;-68
2022/05/16 12:11:25;;;;;;;3.78;1.50;;;;;;;20.75;84.99;98726.66;5064082;28;20320;-68
2022/05/16 12:14:11;;;;;;;4.97;1.45;;;;;;;20.85;85.24;98727.00;5063726;28;20329;-68
2022/05/16 12:17:17;;;;;;;3.75;1.38;;;;;;;21.09;83.31;98721.09;5064026;28;20252;-68
2022/05/16 12:19:46;;;;;;;7.75;1.45;;;;;;;21.48;84.26;98727.66;5068189;28;20055;-68
2022/05/16 12:22:32;;;;;;;5.18;1.83;;;;;;;21.61;82.71;98720.56;5068151;28;20051;-68
2022/05/16 12:25:06;;;;;;;4.45;1.95;;;;;;;21.88;83.75;98721.53;5067865;28;20288;-68